sensor_id;sensor_type;location;lat;lon;timestamp;temperature;humidity
11744;DHT22;5929;51.906;7.674;2022-10-29T00:00:30;15.70;99.90
11744;DHT22;5929;51.906;7.674;2022-10-29T00:02:57;15.60;99.90
11744;DHT22;5929;51.906;7.674;2022-10-29T00:05:24;15.60;99.90
11744;DHT22;5929;51.906;7.674;2022-10-29T00:07:50;15.50;99.90
11744;DHT22;5929;51.906;7.674;2022-10-29T00:10:19;15.50;99.90
11744;DHT22;5929;51.906;7.674;2022-10-29T00:12:46;15.50;99.90
11744;DHT22;5929;51.906;7.674;2022-10-29T00:15:12;15.50;99.90
11744;DHT22;5929;51.906;7.674;2022-10-29T00:17:42;15.40;99.90
11744;DHT22;5929;51.906;7.674;2022-10-29T00:20:09;15.40;99.90
11744;DHT22;5929;51.906;7.674;2022-10-29T00:22:36;15.40;99.90
11744;DHT22;5929;51.906;7.674;2022-10-29T00:25:03;15.40;99.90
11744;DHT22;5929;51.906;7.674;2022-10-29T00:27:31;15.30;99.90
11744;DHT22;5929;51.906;7.674;2022-10-29T00:29:58;15.30;99.90
11744;DHT22;5929;51.906;7.674;2022-10-29T00:32:25;15.30;99.90
11744;DHT22;5929;51.906;7.674;2022-10-29T00:34:52;15.20;99.90
11744;DHT22;5929;51.906;7.674;2022-10-29T00:37:19;15.20;99.90
11744;DHT22;5929;51.906;7.674;2022-10-29T00:39:45;15.10;99.90
11744;DHT22;5929;51.906;7.674;2022-10-29T00:42:13;15.10;99.90
11744;DHT22;5929;51.906;7.674;2022-10-29T00:44:42;15.10;99.90
11744;DHT22;5929;51.906;7.674;2022-10-29T00:47:15;15.00;99.90
11744;DHT22;5929;51.906;7.674;2022-10-29T00:49:44;15.00;99.90
11744;DHT22;5929;51.906;7.674;2022-10-29T00:52:13;15.00;99.90
11744;DHT22;5929;51.906;7.674;2022-10-29T00:54:42;15.00;99.90
11744;DHT22;5929;51.906;7.674;2022-10-29T00:57:14;15.00;99.90
11744;DHT22;5929;51.906;7.674;2022-10-29T00:59:44;15.00;99.90
11744;DHT22;5929;51.906;7.674;2022-10-29T01:02:11;15.00;99.90
11744;DHT22;5929;51.906;7.674;2022-10-29T01:04:41;15.00;99.90
11744;DHT22;5929;51.906;7.674;2022-10-29T01:07:08;15.00;99.90
11744;DHT22;5929;51.906;7.674;2022-10-29T01:09:36;15.00;99.90
11744;DHT22;5929;51.906;7.674;2022-10-29T01:12:28;15.00;99.90
11744;DHT22;5929;51.906;7.674;2022-10-29T01:15:06;15.00;99.90
11744;DHT22;5929;51.906;7.674;2022-10-29T01:17:48;15.00;99.90
11744;DHT22;5929;51.906;7.674;2022-10-29T01:23:48;14.90;99.90
11744;DHT22;5929;51.906;7.674;2022-10-29T01:29:32;14.90;99.90
11744;DHT22;5929;51.906;7.674;2022-10-29T01:32:08;14.80;99.90
11744;DHT22;5929;51.906;7.674;2022-10-29T01:34:42;14.80;99.90
11744;DHT22;5929;51.906;7.674;2022-10-29T01:37:15;14.70;99.90
11744;DHT22;5929;51.906;7.674;2022-10-29T01:39:54;14.60;99.90
11744;DHT22;5929;51.906;7.674;2022-10-29T01:42:25;14.50;99.90
11744;DHT22;5929;51.906;7.674;2022-10-29T01:44:59;14.50;99.90
11744;DHT22;5929;51.906;7.674;2022-10-29T01:47:37;14.50;99.90
11744;DHT22;5929;51.906;7.674;2022-10-29T01:50:09;14.40;99.90
11744;DHT22;5929;51.906;7.674;2022-10-29T01:52:37;14.40;99.90
11744;DHT22;5929;51.906;7.674;2022-10-29T01:55:05;14.40;99.90
11744;DHT22;5929;51.906;7.674;2022-10-29T01:57:34;14.40;99.90
11744;DHT22;5929;51.906;7.674;2022-10-29T02:00:04;14.40;99.90
11744;DHT22;5929;51.906;7.674;2022-10-29T02:02:53;14.40;99.90
11744;DHT22;5929;51.906;7.674;2022-10-29T02:05:29;14.30;99.90
11744;DHT22;5929;51.906;7.674;2022-10-29T02:08:05;14.20;99.90
11744;DHT22;5929;51.906;7.674;2022-10-29T02:10:42;14.30;99.90
11744;DHT22;5929;51.906;7.674;2022-10-29T02:13:13;14.30;99.90
11744;DHT22;5929;51.906;7.674;2022-10-29T02:15:44;14.30;99.90
11744;DHT22;5929;51.906;7.674;2022-10-29T02:18:15;14.30;99.90
11744;DHT22;5929;51.906;7.674;2022-10-29T02:20:43;14.40;99.90
11744;DHT22;5929;51.906;7.674;2022-10-29T02:23:10;14.40;99.90
11744;DHT22;5929;51.906;7.674;2022-10-29T02:25:37;14.40;99.90
11744;DHT22;5929;51.906;7.674;2022-10-29T02:28:04;14.40;99.90
11744;DHT22;5929;51.906;7.674;2022-10-29T02:30:31;14.30;99.90
11744;DHT22;5929;51.906;7.674;2022-10-29T02:32:57;14.20;99.90
11744;DHT22;5929;51.906;7.674;2022-10-29T02:35:28;14.20;99.90
11744;DHT22;5929;51.906;7.674;2022-10-29T02:37:55;14.20;99.90
11744;DHT22;5929;51.906;7.674;2022-10-29T02:40:21;14.20;99.90
11744;DHT22;5929;51.906;7.674;2022-10-29T02:42:48;14.10;99.90
11744;DHT22;5929;51.906;7.674;2022-10-29T02:45:15;14.10;99.90
11744;DHT22;5929;51.906;7.674;2022-10-29T02:47:44;14.10;99.90
11744;DHT22;5929;51.906;7.674;2022-10-29T02:50:11;14.10;99.90
11744;DHT22;5929;51.906;7.674;2022-10-29T02:52:42;14.10;99.90
11744;DHT22;5929;51.906;7.674;2022-10-29T02:55:09;14.10;99.90
11744;DHT22;5929;51.906;7.674;2022-10-29T02:57:35;14.10;99.90
11744;DHT22;5929;51.906;7.674;2022-10-29T03:00:03;14.10;99.90
11744;DHT22;5929;51.906;7.674;2022-10-29T03:02:30;14.10;99.90
11744;DHT22;5929;51.906;7.674;2022-10-29T03:04:56;14.10;99.90
11744;DHT22;5929;51.906;7.674;2022-10-29T03:07:23;14.10;99.90
11744;DHT22;5929;51.906;7.674;2022-10-29T03:09:51;14.10;99.90
11744;DHT22;5929;51.906;7.674;2022-10-29T03:12:18;14.10;99.90
11744;DHT22;5929;51.906;7.674;2022-10-29T03:14:45;14.10;99.90
11744;DHT22;5929;51.906;7.674;2022-10-29T03:17:12;14.10;99.90
11744;DHT22;5929;51.906;7.674;2022-10-29T03:19:39;14.10;99.90
11744;DHT22;5929;51.906;7.674;2022-10-29T03:22:05;14.10;99.90
11744;DHT22;5929;51.906;7.674;2022-10-29T03:24:32;14.10;99.90
11744;DHT22;5929;51.906;7.674;2022-10-29T03:27:00;14.10;99.90
11744;DHT22;5929;51.906;7.674;2022-10-29T03:29:28;14.00;99.90
11744;DHT22;5929;51.906;7.674;2022-10-29T03:31:54;14.00;99.90
11744;DHT22;5929;51.906;7.674;2022-10-29T03:34:21;14.00;99.90
11744;DHT22;5929;51.906;7.674;2022-10-29T03:36:48;14.00;99.90
11744;DHT22;5929;51.906;7.674;2022-10-29T03:39:15;14.10;99.90
11744;DHT22;5929;51.906;7.674;2022-10-29T03:41:44;14.00;99.90
11744;DHT22;5929;51.906;7.674;2022-10-29T03:44:12;14.00;99.90
11744;DHT22;5929;51.906;7.674;2022-10-29T03:46:39;14.00;99.90
11744;DHT22;5929;51.906;7.674;2022-10-29T03:49:05;13.90;99.90
11744;DHT22;5929;51.906;7.674;2022-10-29T03:51:32;13.90;99.90
11744;DHT22;5929;51.906;7.674;2022-10-29T03:53:59;13.90;99.90
11744;DHT22;5929;51.906;7.674;2022-10-29T03:56:26;13.80;99.90
11744;DHT22;5929;51.906;7.674;2022-10-29T03:58:52;13.80;99.90
11744;DHT22;5929;51.906;7.674;2022-10-29T04:01:21;13.80;99.90
11744;DHT22;5929;51.906;7.674;2022-10-29T04:03:47;13.80;99.90
11744;DHT22;5929;51.906;7.674;2022-10-29T04:06:17;13.80;99.90
11744;DHT22;5929;51.906;7.674;2022-10-29T04:08:44;13.80;99.90
11744;DHT22;5929;51.906;7.674;2022-10-29T04:11:12;13.80;99.90
11744;DHT22;5929;51.906;7.674;2022-10-29T04:13:41;13.80;99.90
11744;DHT22;5929;51.906;7.674;2022-10-29T04:16:08;13.80;99.90
11744;DHT22;5929;51.906;7.674;2022-10-29T04:18:36;13.70;99.90
11744;DHT22;5929;51.906;7.674;2022-10-29T04:21:03;13.70;99.90
11744;DHT22;5929;51.906;7.674;2022-10-29T04:23:30;13.70;99.90
11744;DHT22;5929;51.906;7.674;2022-10-29T04:25:57;13.70;99.90
11744;DHT22;5929;51.906;7.674;2022-10-29T04:28:25;13.70;99.90
11744;DHT22;5929;51.906;7.674;2022-10-29T04:30:52;13.70;99.90
11744;DHT22;5929;51.906;7.674;2022-10-29T04:33:19;13.70;99.90
11744;DHT22;5929;51.906;7.674;2022-10-29T04:35:52;13.70;99.90
11744;DHT22;5929;51.906;7.674;2022-10-29T04:38:20;13.60;99.90
11744;DHT22;5929;51.906;7.674;2022-10-29T04:40:47;13.60;99.90
11744;DHT22;5929;51.906;7.674;2022-10-29T04:43:14;13.70;99.90
11744;DHT22;5929;51.906;7.674;2022-10-29T04:45:41;13.70;99.90
11744;DHT22;5929;51.906;7.674;2022-10-29T04:48:08;13.60;99.90
11744;DHT22;5929;51.906;7.674;2022-10-29T04:50:36;13.60;99.90
11744;DHT22;5929;51.906;7.674;2022-10-29T04:53:07;13.60;99.90
11744;DHT22;5929;51.906;7.674;2022-10-29T04:55:36;13.60;99.90
11744;DHT22;5929;51.906;7.674;2022-10-29T04:58:03;13.60;99.90
11744;DHT22;5929;51.906;7.674;2022-10-29T05:00:30;13.60;99.90
11744;DHT22;5929;51.906;7.674;2022-10-29T05:02:57;13.60;99.90
11744;DHT22;5929;51.906;7.674;2022-10-29T05:05:24;13.70;99.90
11744;DHT22;5929;51.906;7.674;2022-10-29T05:07:55;13.70;99.90
11744;DHT22;5929;51.906;7.674;2022-10-29T05:10:24;13.60;99.90
11744;DHT22;5929;51.906;7.674;2022-10-29T05:12:55;13.60;99.90
11744;DHT22;5929;51.906;7.674;2022-10-29T05:15:22;13.60;99.90
11744;DHT22;5929;51.906;7.674;2022-10-29T05:17:49;13.60;99.90
11744;DHT22;5929;51.906;7.674;2022-10-29T05:20:19;13.60;99.90
11744;DHT22;5929;51.906;7.674;2022-10-29T05:22:45;13.60;99.90
11744;DHT22;5929;51.906;7.674;2022-10-29T05:25:12;13.60;99.90
11744;DHT22;5929;51.906;7.674;2022-10-29T05:27:41;13.60;99.90
11744;DHT22;5929;51.906;7.674;2022-10-29T05:30:08;13.50;99.90
11744;DHT22;5929;51.906;7.674;2022-10-29T05:32:35;13.50;99.90
11744;DHT22;5929;51.906;7.674;2022-10-29T05:35:02;13.40;99.90
11744;DHT22;5929;51.906;7.674;2022-10-29T05:37:29;13.40;99.90
11744;DHT22;5929;51.906;7.674;2022-10-29T05:39:55;13.40;99.90
11744;DHT22;5929;51.906;7.674;2022-10-29T05:42:22;13.40;99.90
11744;DHT22;5929;51.906;7.674;2022-10-29T05:44:50;13.40;99.90
11744;DHT22;5929;51.906;7.674;2022-10-29T05:47:17;13.30;99.90
11744;DHT22;5929;51.906;7.674;2022-10-29T05:49:44;13.30;99.90
11744;DHT22;5929;51.906;7.674;2022-10-29T05:52:13;13.20;99.90
11744;DHT22;5929;51.906;7.674;2022-10-29T05:54:40;13.20;99.90
11744;DHT22;5929;51.906;7.674;2022-10-29T05:57:06;13.10;99.90
11744;DHT22;5929;51.906;7.674;2022-10-29T05:59:33;13.10;99.90
11744;DHT22;5929;51.906;7.674;2022-10-29T06:02:01;13.10;99.90
11744;DHT22;5929;51.906;7.674;2022-10-29T06:04:28;13.20;99.90
11744;DHT22;5929;51.906;7.674;2022-10-29T06:06:55;13.20;99.90
11744;DHT22;5929;51.906;7.674;2022-10-29T06:09:22;13.20;99.90
11744;DHT22;5929;51.906;7.674;2022-10-29T06:11:49;13.20;99.90
11744;DHT22;5929;51.906;7.674;2022-10-29T06:14:15;13.20;99.90
11744;DHT22;5929;51.906;7.674;2022-10-29T06:16:42;13.30;99.90
11744;DHT22;5929;51.906;7.674;2022-10-29T06:19:10;13.30;99.90
11744;DHT22;5929;51.906;7.674;2022-10-29T06:21:37;13.30;99.90
11744;DHT22;5929;51.906;7.674;2022-10-29T06:24:05;13.30;99.90
11744;DHT22;5929;51.906;7.674;2022-10-29T06:26:32;13.30;99.90
11744;DHT22;5929;51.906;7.674;2022-10-29T06:28:59;13.30;99.90
11744;DHT22;5929;51.906;7.674;2022-10-29T06:31:26;13.30;99.90
11744;DHT22;5929;51.906;7.674;2022-10-29T06:33:53;13.30;99.90
11744;DHT22;5929;51.906;7.674;2022-10-29T06:36:25;13.30;99.90
11744;DHT22;5929;51.906;7.674;2022-10-29T06:38:51;13.30;99.90
11744;DHT22;5929;51.906;7.674;2022-10-29T06:41:18;13.40;99.90
11744;DHT22;5929;51.906;7.674;2022-10-29T06:43:49;13.40;99.90
11744;DHT22;5929;51.906;7.674;2022-10-29T06:46:19;13.40;99.90
11744;DHT22;5929;51.906;7.674;2022-10-29T06:48:45;13.40;99.90
11744;DHT22;5929;51.906;7.674;2022-10-29T06:51:12;13.40;99.90
11744;DHT22;5929;51.906;7.674;2022-10-29T06:53:40;13.40;99.90
11744;DHT22;5929;51.906;7.674;2022-10-29T06:56:07;13.40;99.90
11744;DHT22;5929;51.906;7.674;2022-10-29T06:58:34;13.50;99.90
11744;DHT22;5929;51.906;7.674;2022-10-29T07:01:01;13.40;99.90
11744;DHT22;5929;51.906;7.674;2022-10-29T07:03:28;13.40;99.90
11744;DHT22;5929;51.906;7.674;2022-10-29T07:05:55;13.40;99.90
11744;DHT22;5929;51.906;7.674;2022-10-29T07:08:22;13.40;99.90
11744;DHT22;5929;51.906;7.674;2022-10-29T07:10:51;13.40;99.90
11744;DHT22;5929;51.906;7.674;2022-10-29T07:13:18;13.40;99.90
11744;DHT22;5929;51.906;7.674;2022-10-29T07:15:45;13.40;99.90
11744;DHT22;5929;51.906;7.674;2022-10-29T07:18:12;13.50;99.90
11744;DHT22;5929;51.906;7.674;2022-10-29T07:20:40;13.50;99.90
11744;DHT22;5929;51.906;7.674;2022-10-29T07:23:08;13.60;99.90
11744;DHT22;5929;51.906;7.674;2022-10-29T07:25:36;13.70;99.90
11744;DHT22;5929;51.906;7.674;2022-10-29T07:28:06;13.70;99.90
11744;DHT22;5929;51.906;7.674;2022-10-29T07:30:33;13.80;99.90
11744;DHT22;5929;51.906;7.674;2022-10-29T07:33:00;13.80;99.90
11744;DHT22;5929;51.906;7.674;2022-10-29T07:35:27;13.90;99.90
11744;DHT22;5929;51.906;7.674;2022-10-29T07:38:00;13.90;99.90
11744;DHT22;5929;51.906;7.674;2022-10-29T07:40:29;14.00;99.90
11744;DHT22;5929;51.906;7.674;2022-10-29T07:42:58;14.00;99.90
11744;DHT22;5929;51.906;7.674;2022-10-29T07:45:26;14.10;99.90
11744;DHT22;5929;51.906;7.674;2022-10-29T07:48:00;14.10;99.90
11744;DHT22;5929;51.906;7.674;2022-10-29T07:50:29;14.20;99.90
11744;DHT22;5929;51.906;7.674;2022-10-29T07:52:58;14.20;99.90
11744;DHT22;5929;51.906;7.674;2022-10-29T07:55:25;14.30;99.90
11744;DHT22;5929;51.906;7.674;2022-10-29T07:57:55;14.30;99.90
11744;DHT22;5929;51.906;7.674;2022-10-29T08:00:23;14.40;99.90
11744;DHT22;5929;51.906;7.674;2022-10-29T08:02:52;14.50;99.90
11744;DHT22;5929;51.906;7.674;2022-10-29T08:05:20;14.50;99.90
11744;DHT22;5929;51.906;7.674;2022-10-29T08:07:47;14.60;99.90
11744;DHT22;5929;51.906;7.674;2022-10-29T08:10:14;14.70;99.90
11744;DHT22;5929;51.906;7.674;2022-10-29T08:12:48;14.70;99.90
11744;DHT22;5929;51.906;7.674;2022-10-29T08:15:15;14.80;99.90
11744;DHT22;5929;51.906;7.674;2022-10-29T08:17:42;14.80;99.90
11744;DHT22;5929;51.906;7.674;2022-10-29T08:20:14;14.80;99.90
11744;DHT22;5929;51.906;7.674;2022-10-29T08:22:41;14.80;99.90
11744;DHT22;5929;51.906;7.674;2022-10-29T08:25:08;14.90;99.90
11744;DHT22;5929;51.906;7.674;2022-10-29T08:27:36;15.00;99.90
11744;DHT22;5929;51.906;7.674;2022-10-29T08:30:03;15.10;99.90
11744;DHT22;5929;51.906;7.674;2022-10-29T08:32:30;15.30;99.90
11744;DHT22;5929;51.906;7.674;2022-10-29T08:34:57;15.30;99.90
11744;DHT22;5929;51.906;7.674;2022-10-29T08:37:25;15.40;99.90
11744;DHT22;5929;51.906;7.674;2022-10-29T08:39:52;15.50;99.90
11744;DHT22;5929;51.906;7.674;2022-10-29T08:42:31;15.60;99.90
11744;DHT22;5929;51.906;7.674;2022-10-29T08:45:14;15.80;99.90
11744;DHT22;5929;51.906;7.674;2022-10-29T08:48:05;15.80;99.90
11744;DHT22;5929;51.906;7.674;2022-10-29T08:50:41;15.90;99.90
11744;DHT22;5929;51.906;7.674;2022-10-29T08:53:15;15.80;99.90
11744;DHT22;5929;51.906;7.674;2022-10-29T08:55:43;15.90;99.90
11744;DHT22;5929;51.906;7.674;2022-10-29T08:58:21;15.90;99.90
11744;DHT22;5929;51.906;7.674;2022-10-29T09:00:53;15.80;99.90
11744;DHT22;5929;51.906;7.674;2022-10-29T09:03:25;15.90;99.90
11744;DHT22;5929;51.906;7.674;2022-10-29T09:05:59;16.10;99.90
11744;DHT22;5929;51.906;7.674;2022-10-29T09:08:48;16.10;99.90
11744;DHT22;5929;51.906;7.674;2022-10-29T09:11:31;16.10;99.90
11744;DHT22;5929;51.906;7.674;2022-10-29T09:14:15;16.30;99.90
11744;DHT22;5929;51.906;7.674;2022-10-29T09:16:49;16.50;99.90
11744;DHT22;5929;51.906;7.674;2022-10-29T09:19:39;16.70;99.90
11744;DHT22;5929;51.906;7.674;2022-10-29T09:22:13;16.80;99.90
11744;DHT22;5929;51.906;7.674;2022-10-29T09:24:49;16.90;99.90
11744;DHT22;5929;51.906;7.674;2022-10-29T09:27:28;17.00;99.90
11744;DHT22;5929;51.906;7.674;2022-10-29T09:30:05;17.00;99.90
11744;DHT22;5929;51.906;7.674;2022-10-29T09:32:37;17.10;99.90
11744;DHT22;5929;51.906;7.674;2022-10-29T09:35:11;17.20;99.90
11744;DHT22;5929;51.906;7.674;2022-10-29T09:37:43;17.20;99.90
11744;DHT22;5929;51.906;7.674;2022-10-29T09:40:28;17.20;99.90
11744;DHT22;5929;51.906;7.674;2022-10-29T09:42:57;17.30;99.90
11744;DHT22;5929;51.906;7.674;2022-10-29T09:45:40;17.40;99.90
11744;DHT22;5929;51.906;7.674;2022-10-29T09:48:11;17.40;99.90
11744;DHT22;5929;51.906;7.674;2022-10-29T09:50:51;17.50;99.90
11744;DHT22;5929;51.906;7.674;2022-10-29T09:53:19;17.40;99.90
11744;DHT22;5929;51.906;7.674;2022-10-29T09:55:48;17.50;99.90
11744;DHT22;5929;51.906;7.674;2022-10-29T09:58:20;17.40;99.90
11744;DHT22;5929;51.906;7.674;2022-10-29T10:00:47;17.60;99.90
11744;DHT22;5929;51.906;7.674;2022-10-29T10:03:19;17.60;99.90
11744;DHT22;5929;51.906;7.674;2022-10-29T10:05:58;17.80;99.90
11744;DHT22;5929;51.906;7.674;2022-10-29T10:08:26;18.10;99.90
11744;DHT22;5929;51.906;7.674;2022-10-29T10:10:56;18.30;99.90
11744;DHT22;5929;51.906;7.674;2022-10-29T10:13:24;18.50;99.90
11744;DHT22;5929;51.906;7.674;2022-10-29T10:15:53;18.60;99.90
11744;DHT22;5929;51.906;7.674;2022-10-29T10:18:21;18.60;99.90
11744;DHT22;5929;51.906;7.674;2022-10-29T10:21:00;18.80;99.90
11744;DHT22;5929;51.906;7.674;2022-10-29T10:23:29;18.70;99.90
11744;DHT22;5929;51.906;7.674;2022-10-29T10:26:00;18.80;99.90
11744;DHT22;5929;51.906;7.674;2022-10-29T10:28:28;18.90;99.90
11744;DHT22;5929;51.906;7.674;2022-10-29T10:31:11;19.10;99.90
11744;DHT22;5929;51.906;7.674;2022-10-29T10:33:49;19.40;99.90
11744;DHT22;5929;51.906;7.674;2022-10-29T10:36:17;19.50;99.90
11744;DHT22;5929;51.906;7.674;2022-10-29T10:38:48;19.70;99.90
11744;DHT22;5929;51.906;7.674;2022-10-29T10:41:23;20.00;99.90
11744;DHT22;5929;51.906;7.674;2022-10-29T10:43:50;20.40;99.90
11744;DHT22;5929;51.906;7.674;2022-10-29T10:46:22;20.40;99.90
11744;DHT22;5929;51.906;7.674;2022-10-29T10:49:01;20.90;99.90
11744;DHT22;5929;51.906;7.674;2022-10-29T10:51:31;21.70;99.90
11744;DHT22;5929;51.906;7.674;2022-10-29T10:53:59;21.80;99.90
11744;DHT22;5929;51.906;7.674;2022-10-29T10:56:28;21.80;99.90
11744;DHT22;5929;51.906;7.674;2022-10-29T10:59:00;21.80;99.90
11744;DHT22;5929;51.906;7.674;2022-10-29T11:01:34;22.50;99.90
11744;DHT22;5929;51.906;7.674;2022-10-29T11:04:10;22.70;99.90
11744;DHT22;5929;51.906;7.674;2022-10-29T11:06:41;23.60;99.90
11744;DHT22;5929;51.906;7.674;2022-10-29T11:09:20;24.50;99.00
11744;DHT22;5929;51.906;7.674;2022-10-29T11:11:56;25.50;96.30
11744;DHT22;5929;51.906;7.674;2022-10-29T11:14:27;25.60;95.40
11744;DHT22;5929;51.906;7.674;2022-10-29T11:16:59;25.50;94.60
11744;DHT22;5929;51.906;7.674;2022-10-29T11:19:29;25.20;95.90
11744;DHT22;5929;51.906;7.674;2022-10-29T11:22:03;24.40;96.90
11744;DHT22;5929;51.906;7.674;2022-10-29T11:24:48;24.50;95.90
11744;DHT22;5929;51.906;7.674;2022-10-29T11:27:28;24.60;96.20
11744;DHT22;5929;51.906;7.674;2022-10-29T11:30:03;24.10;96.70
11744;DHT22;5929;51.906;7.674;2022-10-29T11:32:39;24.20;96.60
11744;DHT22;5929;51.906;7.674;2022-10-29T11:35:12;24.30;95.90
11744;DHT22;5929;51.906;7.674;2022-10-29T11:37:45;24.30;96.20
11744;DHT22;5929;51.906;7.674;2022-10-29T11:40:17;24.50;95.50
11744;DHT22;5929;51.906;7.674;2022-10-29T11:42:49;24.60;96.80
11744;DHT22;5929;51.906;7.674;2022-10-29T11:45:25;25.00;95.00
11744;DHT22;5929;51.906;7.674;2022-10-29T11:48:06;24.50;94.70
11744;DHT22;5929;51.906;7.674;2022-10-29T11:50:43;24.20;95.50
11744;DHT22;5929;51.906;7.674;2022-10-29T11:53:43;23.90;96.20
11744;DHT22;5929;51.906;7.674;2022-10-29T11:56:21;24.00;96.70
11744;DHT22;5929;51.906;7.674;2022-10-29T11:58:58;23.90;96.40
11744;DHT22;5929;51.906;7.674;2022-10-29T12:01:32;23.80;96.70
11744;DHT22;5929;51.906;7.674;2022-10-29T12:07:16;24.50;96.40
11744;DHT22;5929;51.906;7.674;2022-10-29T12:10:13;25.20;95.80
11744;DHT22;5929;51.906;7.674;2022-10-29T12:12:48;25.80;94.50
11744;DHT22;5929;51.906;7.674;2022-10-29T12:15:25;26.00;92.90
11744;DHT22;5929;51.906;7.674;2022-10-29T12:17:59;26.00;93.20
11744;DHT22;5929;51.906;7.674;2022-10-29T12:20:33;26.20;92.60
11744;DHT22;5929;51.906;7.674;2022-10-29T12:23:10;26.30;92.20
11744;DHT22;5929;51.906;7.674;2022-10-29T12:25:49;26.60;91.80
11744;DHT22;5929;51.906;7.674;2022-10-29T12:28:25;26.50;93.20
11744;DHT22;5929;51.906;7.674;2022-10-29T12:31:07;27.00;92.30
11744;DHT22;5929;51.906;7.674;2022-10-29T12:33:44;27.20;90.70
11744;DHT22;5929;51.906;7.674;2022-10-29T12:36:21;27.40;90.90
11744;DHT22;5929;51.906;7.674;2022-10-29T12:38:54;28.60;88.00
11744;DHT22;5929;51.906;7.674;2022-10-29T12:41:23;28.70;87.20
11744;DHT22;5929;51.906;7.674;2022-10-29T12:43:52;28.80;85.70
11744;DHT22;5929;51.906;7.674;2022-10-29T12:46:30;28.80;85.80
11744;DHT22;5929;51.906;7.674;2022-10-29T12:49:07;28.40;88.00
11744;DHT22;5929;51.906;7.674;2022-10-29T12:51:41;28.20;86.40
11744;DHT22;5929;51.906;7.674;2022-10-29T12:54:20;27.90;87.70
11744;DHT22;5929;51.906;7.674;2022-10-29T12:56:49;27.80;86.80
11744;DHT22;5929;51.906;7.674;2022-10-29T12:59:31;27.90;87.50
11744;DHT22;5929;51.906;7.674;2022-10-29T13:02:27;28.60;85.40
11744;DHT22;5929;51.906;7.674;2022-10-29T13:05:16;28.50;85.30
11744;DHT22;5929;51.906;7.674;2022-10-29T13:08:26;28.70;85.70
11744;DHT22;5929;51.906;7.674;2022-10-29T13:10:58;28.80;85.40
11744;DHT22;5929;51.906;7.674;2022-10-29T13:13:53;28.10;86.70
11744;DHT22;5929;51.906;7.674;2022-10-29T13:16:27;27.50;88.20
11744;DHT22;5929;51.906;7.674;2022-10-29T13:19:11;27.00;89.80
11744;DHT22;5929;51.906;7.674;2022-10-29T13:22:03;26.40;90.20
11744;DHT22;5929;51.906;7.674;2022-10-29T13:24:32;25.60;91.50
11744;DHT22;5929;51.906;7.674;2022-10-29T13:27:02;25.30;92.20
11744;DHT22;5929;51.906;7.674;2022-10-29T13:29:43;25.00;93.10
11744;DHT22;5929;51.906;7.674;2022-10-29T13:32:29;24.70;93.70
11744;DHT22;5929;51.906;7.674;2022-10-29T13:34:58;24.50;92.70
11744;DHT22;5929;51.906;7.674;2022-10-29T13:37:52;24.20;93.90
11744;DHT22;5929;51.906;7.674;2022-10-29T13:43:21;23.60;95.60
11744;DHT22;5929;51.906;7.674;2022-10-29T13:45:58;23.30;95.90
11744;DHT22;5929;51.906;7.674;2022-10-29T13:48:29;23.10;97.00
11744;DHT22;5929;51.906;7.674;2022-10-29T13:53:34;22.70;98.20
11744;DHT22;5929;51.906;7.674;2022-10-29T13:56:08;22.60;98.20
11744;DHT22;5929;51.906;7.674;2022-10-29T13:58:40;22.50;97.80
11744;DHT22;5929;51.906;7.674;2022-10-29T14:01:15;22.40;98.50
11744;DHT22;5929;51.906;7.674;2022-10-29T14:03:54;22.40;98.60
11744;DHT22;5929;51.906;7.674;2022-10-29T14:06:27;22.30;99.00
11744;DHT22;5929;51.906;7.674;2022-10-29T14:09:00;22.20;99.40
11744;DHT22;5929;51.906;7.674;2022-10-29T14:11:35;22.10;99.10
11744;DHT22;5929;51.906;7.674;2022-10-29T14:14:05;22.10;99.10
11744;DHT22;5929;51.906;7.674;2022-10-29T14:16:44;22.10;99.50
11744;DHT22;5929;51.906;7.674;2022-10-29T14:19:12;22.00;99.90
11744;DHT22;5929;51.906;7.674;2022-10-29T14:21:41;22.00;99.90
11744;DHT22;5929;51.906;7.674;2022-10-29T14:24:09;22.10;99.70
11744;DHT22;5929;51.906;7.674;2022-10-29T14:26:41;22.20;99.50
11744;DHT22;5929;51.906;7.674;2022-10-29T14:29:18;22.30;99.50
11744;DHT22;5929;51.906;7.674;2022-10-29T14:31:45;22.20;99.90
11744;DHT22;5929;51.906;7.674;2022-10-29T14:34:22;22.10;99.90
11744;DHT22;5929;51.906;7.674;2022-10-29T14:36:54;22.00;99.90
11744;DHT22;5929;51.906;7.674;2022-10-29T14:39:24;21.80;99.90
11744;DHT22;5929;51.906;7.674;2022-10-29T14:41:52;21.60;99.90
11744;DHT22;5929;51.906;7.674;2022-10-29T14:44:25;21.40;99.90
11744;DHT22;5929;51.906;7.674;2022-10-29T14:46:59;21.40;99.90
11744;DHT22;5929;51.906;7.674;2022-10-29T14:49:27;21.20;99.90
11744;DHT22;5929;51.906;7.674;2022-10-29T14:51:58;21.20;99.90
11744;DHT22;5929;51.906;7.674;2022-10-29T14:54:27;21.10;99.90
11744;DHT22;5929;51.906;7.674;2022-10-29T14:56:57;21.20;99.90
11744;DHT22;5929;51.906;7.674;2022-10-29T14:59:26;21.20;99.90
11744;DHT22;5929;51.906;7.674;2022-10-29T15:01:56;21.20;99.90
11744;DHT22;5929;51.906;7.674;2022-10-29T15:04:25;21.10;99.90
11744;DHT22;5929;51.906;7.674;2022-10-29T15:07:13;21.10;99.90
11744;DHT22;5929;51.906;7.674;2022-10-29T15:09:40;21.10;99.90
11744;DHT22;5929;51.906;7.674;2022-10-29T15:12:15;21.10;99.90
11744;DHT22;5929;51.906;7.674;2022-10-29T15:14:48;21.10;99.90
11744;DHT22;5929;51.906;7.674;2022-10-29T15:17:20;21.00;99.90
11744;DHT22;5929;51.906;7.674;2022-10-29T15:19:53;20.90;99.90
11744;DHT22;5929;51.906;7.674;2022-10-29T15:22:27;20.80;99.90
11744;DHT22;5929;51.906;7.674;2022-10-29T15:24:55;20.70;99.90
11744;DHT22;5929;51.906;7.674;2022-10-29T15:27:22;20.60;99.90
11744;DHT22;5929;51.906;7.674;2022-10-29T15:29:51;20.50;99.90
11744;DHT22;5929;51.906;7.674;2022-10-29T15:32:19;20.40;99.90
11744;DHT22;5929;51.906;7.674;2022-10-29T15:34:48;20.30;99.90
11744;DHT22;5929;51.906;7.674;2022-10-29T15:37:40;20.10;99.90
11744;DHT22;5929;51.906;7.674;2022-10-29T15:40:10;20.00;99.90
11744;DHT22;5929;51.906;7.674;2022-10-29T15:42:38;19.90;99.90
11744;DHT22;5929;51.906;7.674;2022-10-29T15:45:19;19.70;99.90
11744;DHT22;5929;51.906;7.674;2022-10-29T15:47:47;19.60;99.90
11744;DHT22;5929;51.906;7.674;2022-10-29T15:50:16;19.50;99.90
11744;DHT22;5929;51.906;7.674;2022-10-29T15:52:49;19.30;99.90
11744;DHT22;5929;51.906;7.674;2022-10-29T15:55:21;19.20;99.90
11744;DHT22;5929;51.906;7.674;2022-10-29T15:57:52;19.10;99.90
11744;DHT22;5929;51.906;7.674;2022-10-29T16:00:20;19.10;99.90
11744;DHT22;5929;51.906;7.674;2022-10-29T16:02:48;19.00;99.90
11744;DHT22;5929;51.906;7.674;2022-10-29T16:05:16;18.90;99.90
11744;DHT22;5929;51.906;7.674;2022-10-29T16:07:46;18.90;99.90
11744;DHT22;5929;51.906;7.674;2022-10-29T16:10:15;18.90;99.90
11744;DHT22;5929;51.906;7.674;2022-10-29T16:12:43;18.80;99.90
11744;DHT22;5929;51.906;7.674;2022-10-29T16:15:14;18.70;99.90
11744;DHT22;5929;51.906;7.674;2022-10-29T16:17:42;18.70;99.90
11744;DHT22;5929;51.906;7.674;2022-10-29T16:20:12;18.70;99.90
11744;DHT22;5929;51.906;7.674;2022-10-29T16:22:40;18.60;99.90
11744;DHT22;5929;51.906;7.674;2022-10-29T16:25:21;18.60;99.90